createdAt,value
2023-10-18T00:00:25.297Z,16.11
2023-10-18T00:03:12.774Z,16.10
2023-10-18T00:05:43.178Z,16.10
2023-10-18T00:08:10.839Z,16.10
2023-10-18T00:10:38.208Z,16.10
2023-10-18T00:13:06.242Z,16.09
2023-10-18T00:15:34.154Z,16.09
2023-10-18T00:18:01.882Z,16.09
2023-10-18T00:20:29.704Z,16.07
2023-10-18T00:22:58.391Z,16.06
2023-10-18T00:25:25.794Z,16.08
2023-10-18T00:27:52.885Z,16.07
2023-10-18T00:30:20.404Z,16.06
2023-10-18T00:32:47.848Z,16.07
2023-10-18T00:35:20.179Z,16.05
2023-10-18T00:37:49.024Z,16.06
2023-10-18T00:40:31.784Z,16.04
2023-10-18T00:43:11.768Z,16.04
2023-10-18T00:45:41.854Z,16.04
2023-10-18T00:48:09.981Z,16.03
2023-10-18T00:50:40.187Z,16.03
2023-10-18T00:53:09.593Z,16.02
2023-10-18T00:55:37.657Z,16.03
2023-10-18T00:58:10.065Z,16.02
2023-10-18T01:00:41.535Z,16.02
2023-10-18T01:03:16.916Z,16.01
2023-10-18T01:05:59.064Z,16.01
2023-10-18T01:08:26.724Z,16.00
2023-10-18T01:10:55.131Z,16.01
2023-10-18T01:13:23.310Z,16.00
2023-10-18T01:15:51.737Z,15.99
2023-10-18T01:18:19.423Z,15.99
2023-10-18T01:20:47.539Z,15.98
2023-10-18T01:23:14.738Z,15.98
2023-10-18T01:25:43.204Z,15.97
2023-10-18T01:28:10.743Z,15.99
2023-10-18T01:30:38.984Z,15.98
2023-10-18T01:33:11.319Z,15.96
2023-10-18T01:35:47.611Z,15.97
2023-10-18T01:38:26.270Z,15.98
2023-10-18T01:40:53.947Z,15.97
2023-10-18T01:43:21.340Z,15.95
2023-10-18T01:45:50.822Z,15.94
2023-10-18T01:48:21.513Z,15.95
2023-10-18T01:50:51.909Z,15.95
2023-10-18T01:53:22.728Z,15.94
2023-10-18T01:55:54.677Z,15.93
2023-10-18T01:58:28.170Z,15.94
2023-10-18T02:00:59.303Z,15.92
2023-10-18T02:03:27.270Z,15.93
2023-10-18T02:05:54.765Z,15.92
2023-10-18T02:08:22.197Z,15.92
2023-10-18T02:10:51.490Z,15.92
2023-10-18T02:13:20.105Z,15.91
2023-10-18T02:15:49.543Z,15.91
2023-10-18T02:18:16.815Z,15.92
2023-10-18T02:20:52.921Z,15.90
2023-10-18T02:23:23.082Z,15.90
2023-10-18T02:25:51.108Z,15.88
2023-10-18T02:28:24.901Z,15.89
2023-10-18T02:30:57.307Z,15.88
2023-10-18T02:33:40.706Z,15.88
2023-10-18T02:36:21.924Z,15.87
2023-10-18T02:38:51.898Z,15.89
2023-10-18T02:41:22.191Z,15.86
2023-10-18T02:43:52.379Z,15.87
2023-10-18T02:46:24.589Z,15.86
2023-10-18T02:48:55.741Z,15.86
2023-10-18T02:51:23.907Z,15.84
2023-10-18T02:53:52.737Z,15.84
2023-10-18T02:56:28.065Z,15.85
2023-10-18T02:59:07.791Z,15.83
2023-10-18T03:01:36.042Z,15.83
2023-10-18T03:04:07.998Z,15.83
2023-10-18T03:06:38.790Z,15.83
2023-10-18T03:09:24.478Z,15.82
2023-10-18T03:11:54.598Z,15.82
2023-10-18T03:14:28.176Z,15.81
2023-10-18T03:16:56.535Z,15.81
2023-10-18T03:19:23.719Z,15.81
2023-10-18T03:21:54.567Z,15.80
2023-10-18T03:24:23.506Z,15.80
2023-10-18T03:26:52.194Z,15.80
2023-10-18T03:29:20.124Z,15.79
2023-10-18T03:31:49.168Z,15.79
2023-10-18T03:34:19.427Z,15.78
2023-10-18T03:36:50.744Z,15.78
2023-10-18T03:39:18.067Z,15.77
2023-10-18T03:41:47.862Z,15.77
2023-10-18T03:44:15.002Z,15.77
2023-10-18T03:46:48.633Z,15.76
2023-10-18T03:49:31.789Z,15.76
2023-10-18T03:52:03.655Z,15.76
2023-10-18T03:54:44.523Z,15.76
2023-10-18T03:57:17.391Z,15.74
2023-10-18T03:59:48.104Z,15.75
2023-10-18T04:02:24.504Z,15.74
2023-10-18T04:04:58.555Z,15.74
2023-10-18T04:07:27.758Z,15.73
2023-10-18T04:10:07.918Z,15.73
2023-10-18T04:12:35.308Z,15.74
2023-10-18T04:15:12.670Z,15.72
2023-10-18T04:17:40.955Z,15.72
2023-10-18T04:20:24.107Z,15.72
2023-10-18T04:22:54.527Z,15.72
2023-10-18T04:25:41.870Z,15.71
2023-10-18T04:28:11.223Z,15.71
2023-10-18T04:30:39.425Z,15.69
2023-10-18T04:33:22.998Z,15.70
2023-10-18T04:35:53.419Z,15.71
2023-10-18T04:38:24.776Z,15.69
2023-10-18T04:41:12.870Z,15.69
2023-10-18T04:43:43.342Z,15.61
2023-10-18T04:46:13.209Z,15.51
2023-10-18T04:48:52.971Z,15.40
2023-10-18T04:51:45.148Z,15.30
2023-10-18T04:54:16.815Z,15.22
2023-10-18T04:56:47.318Z,15.16
2023-10-18T04:59:18.954Z,15.10
2023-10-18T05:01:57.449Z,15.07
2023-10-18T05:04:35.706Z,15.04
2023-10-18T05:07:17.339Z,15.08
2023-10-18T05:09:46.294Z,15.10
2023-10-18T05:12:17.370Z,15.17
2023-10-18T05:14:53.634Z,15.20
2023-10-18T05:17:39.875Z,15.22
2023-10-18T05:20:19.335Z,15.25
2023-10-18T05:22:49.033Z,15.27
2023-10-18T05:25:24.208Z,15.28
2023-10-18T05:28:01.049Z,15.30
2023-10-18T05:30:49.191Z,15.31
2023-10-18T05:33:17.911Z,15.32
2023-10-18T05:35:45.373Z,15.32
2023-10-18T05:38:12.436Z,15.33
2023-10-18T05:40:39.779Z,15.35
2023-10-18T05:43:13.741Z,15.34
2023-10-18T05:45:42.392Z,15.36
2023-10-18T05:48:18.262Z,15.36
2023-10-18T05:50:57.912Z,15.36
2023-10-18T05:53:30.736Z,15.37
2023-10-18T05:55:58.228Z,15.36
2023-10-18T05:58:28.111Z,15.37
2023-10-18T06:00:58.960Z,15.37
2023-10-18T06:03:40.275Z,15.36
2023-10-18T06:06:10.452Z,15.38
2023-10-18T06:08:38.186Z,15.37
2023-10-18T06:11:09.791Z,15.37
2023-10-18T06:13:37.716Z,15.38
2023-10-18T06:16:19.267Z,15.38
2023-10-18T06:18:49.996Z,15.38
2023-10-18T06:21:20.927Z,15.38
2023-10-18T06:23:57.868Z,15.38
2023-10-18T06:26:31.974Z,15.39
2023-10-18T06:29:02.725Z,15.38
2023-10-18T06:31:30.891Z,15.39
2023-10-18T06:34:00.438Z,15.40
2023-10-18T06:36:33.166Z,15.38
2023-10-18T06:39:00.358Z,15.40
2023-10-18T06:41:30.287Z,15.39
2023-10-18T06:43:59.446Z,15.40
2023-10-18T06:46:32.211Z,15.39
2023-10-18T06:49:10.926Z,15.40
2023-10-18T06:51:42.584Z,15.40
2023-10-18T06:54:14.546Z,15.40
2023-10-18T06:56:46.556Z,15.40
2023-10-18T06:59:14.615Z,15.41
2023-10-18T07:01:55.974Z,15.42
2023-10-18T07:04:29.458Z,15.42
2023-10-18T07:06:57.214Z,15.43
2023-10-18T07:09:27.665Z,15.42
2023-10-18T07:11:58.494Z,15.42
2023-10-18T07:14:25.843Z,15.42
2023-10-18T07:16:56.986Z,15.43
2023-10-18T07:19:56.629Z,15.42
2023-10-18T07:22:42.526Z,15.43
2023-10-18T07:25:10.027Z,15.43
2023-10-18T07:27:37.676Z,15.44
2023-10-18T07:30:15.252Z,15.44
2023-10-18T07:32:43.651Z,15.43
2023-10-18T07:35:12.984Z,15.45
2023-10-18T07:37:44.665Z,15.46
2023-10-18T07:40:12.655Z,15.47
2023-10-18T07:42:45.249Z,15.48
2023-10-18T07:45:15.989Z,15.49
2023-10-18T07:47:43.898Z,15.50
2023-10-18T07:50:29.773Z,15.50
2023-10-18T07:52:57.139Z,15.51
2023-10-18T07:55:24.980Z,15.52
2023-10-18T07:57:55.860Z,15.53
2023-10-18T08:00:23.060Z,15.53
2023-10-18T08:02:50.966Z,15.54
2023-10-18T08:05:32.305Z,15.55
2023-10-18T08:08:04.577Z,15.55
2023-10-18T08:10:33.449Z,15.57
2023-10-18T08:13:09.678Z,15.58
2023-10-18T08:15:37.686Z,15.58
2023-10-18T08:18:17.578Z,15.59
2023-10-18T08:20:50.786Z,15.59
2023-10-18T08:23:35.682Z,15.61
2023-10-18T08:26:06.696Z,15.61
2023-10-18T08:28:42.589Z,15.63
2023-10-18T08:31:11.460Z,15.63
2023-10-18T08:33:38.803Z,15.64
2023-10-18T08:36:10.844Z,15.64
2023-10-18T08:38:38.181Z,15.66
2023-10-18T08:41:16.228Z,15.67
2023-10-18T08:43:45.632Z,15.68
2023-10-18T08:46:12.735Z,15.69
2023-10-18T08:48:40.805Z,15.71
2023-10-18T08:51:07.955Z,15.71
2023-10-18T08:53:36.730Z,15.72
2023-10-18T08:56:07.693Z,15.72
2023-10-18T08:58:36.269Z,15.73
2023-10-18T09:01:04.343Z,15.73
2023-10-18T09:03:33.407Z,15.74
2023-10-18T09:06:07.260Z,15.75
2023-10-18T09:08:37.183Z,15.76
2023-10-18T09:11:33.766Z,15.78
2023-10-18T09:14:13.568Z,15.77
2023-10-18T09:16:41.713Z,15.79
2023-10-18T09:19:12.624Z,15.79
2023-10-18T09:21:45.170Z,15.80
2023-10-18T09:24:13.045Z,15.81
2023-10-18T09:26:43.303Z,15.83
2023-10-18T09:29:11.669Z,15.82
2023-10-18T09:31:51.326Z,15.84
2023-10-18T09:34:19.118Z,15.85
2023-10-18T09:36:56.396Z,15.86
2023-10-18T09:39:38.329Z,15.87
2023-10-18T09:42:06.525Z,15.87
2023-10-18T09:44:33.973Z,15.87
2023-10-18T09:47:01.223Z,15.89
2023-10-18T09:49:29.935Z,15.88
2023-10-18T09:52:01.341Z,15.90
2023-10-18T09:54:35.367Z,15.88
2023-10-18T09:57:03.220Z,15.88
2023-10-18T09:59:33.437Z,15.88
2023-10-18T10:02:02.096Z,15.90
2023-10-18T10:04:33.550Z,15.91
2023-10-18T10:07:21.319Z,15.91
2023-10-18T10:09:48.947Z,15.91
2023-10-18T10:12:16.671Z,15.92
2023-10-18T10:14:44.225Z,15.93
2023-10-18T10:17:19.075Z,15.93
2023-10-18T10:19:49.890Z,15.95
2023-10-18T10:22:19.030Z,15.95
2023-10-18T10:25:03.586Z,15.94
2023-10-18T10:27:43.043Z,15.94
2023-10-18T10:30:23.601Z,15.96
2023-10-18T10:32:53.989Z,15.97
2023-10-18T10:35:26.809Z,15.97
2023-10-18T10:37:53.953Z,15.99
2023-10-18T10:40:31.931Z,15.98
2023-10-18T10:43:15.828Z,15.99
2023-10-18T10:45:46.906Z,16.00
2023-10-18T10:48:17.228Z,16.00
2023-10-18T10:50:52.480Z,16.01
2023-10-18T10:53:32.996Z,16.01
2023-10-18T10:56:18.069Z,16.03
2023-10-18T10:58:55.473Z,16.03
2023-10-18T11:01:40.522Z,16.02
2023-10-18T11:04:25.125Z,16.03
2023-10-18T11:06:59.337Z,16.04
2023-10-18T11:09:39.927Z,16.04
2023-10-18T11:12:14.935Z,16.06
2023-10-18T11:14:45.287Z,16.07
2023-10-18T11:17:15.790Z,16.06
2023-10-18T11:19:54.642Z,16.08
2023-10-18T11:22:26.177Z,16.08
2023-10-18T11:24:56.594Z,16.07
2023-10-18T11:27:35.209Z,16.08
2023-10-18T11:30:22.722Z,16.08
2023-10-18T11:32:51.906Z,16.09
2023-10-18T11:35:19.910Z,16.09
2023-10-18T11:37:48.869Z,16.10
2023-10-18T11:40:32.368Z,16.09
2023-10-18T11:43:10.252Z,16.10
2023-10-18T11:45:38.679Z,16.11
2023-10-18T11:48:12.747Z,16.12
2023-10-18T11:50:43.869Z,16.12
2023-10-18T11:53:15.390Z,16.13
2023-10-18T11:55:57.846Z,16.13
2023-10-18T11:58:29.276Z,16.13
2023-10-18T12:00:59.855Z,16.13
2023-10-18T12:03:29.407Z,16.14
2023-10-18T12:05:57.345Z,16.13
2023-10-18T12:08:25.809Z,16.13
2023-10-18T12:10:53.570Z,16.13
2023-10-18T12:13:22.756Z,16.13
2023-10-18T12:15:52.507Z,16.13
2023-10-18T12:18:22.340Z,16.14
2023-10-18T12:20:52.672Z,16.14
2023-10-18T12:23:20.259Z,16.15
2023-10-18T12:25:47.541Z,16.16
2023-10-18T12:28:29.033Z,16.15
2023-10-18T12:30:57.077Z,16.16
2023-10-18T12:33:34.426Z,16.16
2023-10-18T12:36:01.699Z,16.16
2023-10-18T12:38:44.376Z,16.16
2023-10-18T12:41:14.463Z,16.16
2023-10-18T12:43:45.346Z,16.16
2023-10-18T12:46:16.949Z,16.18
2023-10-18T12:48:44.967Z,16.18
2023-10-18T12:51:15.511Z,16.18
2023-10-18T12:54:03.423Z,16.20
2023-10-18T12:56:30.424Z,16.21
2023-10-18T12:59:10.657Z,16.22
2023-10-18T13:01:40.918Z,16.22
2023-10-18T13:04:08.380Z,16.23
2023-10-18T13:06:47.961Z,16.23
2023-10-18T13:09:16.222Z,16.25
2023-10-18T13:11:50.991Z,16.25
2023-10-18T13:14:25.239Z,16.26
2023-10-18T13:16:52.963Z,16.26
2023-10-18T13:19:20.382Z,16.27
2023-10-18T13:21:49.183Z,16.27
2023-10-18T13:24:26.833Z,16.28
2023-10-18T13:26:54.785Z,16.29
2023-10-18T13:29:22.811Z,16.30
2023-10-18T13:31:51.771Z,16.30
2023-10-18T13:34:20.191Z,16.30
2023-10-18T13:36:51.026Z,16.31
2023-10-18T13:39:18.797Z,16.33
2023-10-18T13:41:50.418Z,16.32
2023-10-18T13:44:23.117Z,16.33
2023-10-18T13:47:11.940Z,16.34
2023-10-18T13:49:41.086Z,16.35
2023-10-18T13:52:08.454Z,16.35
2023-10-18T13:54:35.955Z,16.36
2023-10-18T13:57:03.473Z,16.35
2023-10-18T13:59:31.418Z,16.35
2023-10-18T14:01:58.795Z,16.36
2023-10-18T14:04:34.087Z,16.37
2023-10-18T14:07:02.014Z,16.36
2023-10-18T14:09:36.082Z,16.36
2023-10-18T14:12:06.089Z,16.37
2023-10-18T14:14:34.542Z,16.38
2023-10-18T14:17:02.155Z,16.37
2023-10-18T14:19:31.211Z,16.38
2023-10-18T14:21:58.840Z,16.37
2023-10-18T14:24:26.569Z,16.36
2023-10-18T14:26:53.907Z,16.36
2023-10-18T14:29:24.409Z,16.35
2023-10-18T14:31:51.597Z,16.34
2023-10-18T14:34:19.068Z,16.33
2023-10-18T14:36:51.414Z,16.33
2023-10-18T14:39:35.680Z,16.32
2023-10-18T14:42:08.168Z,16.33
2023-10-18T14:44:36.108Z,16.32
2023-10-18T14:47:04.814Z,16.32
2023-10-18T14:49:33.444Z,16.31
2023-10-18T14:52:00.976Z,16.30
2023-10-18T14:54:28.380Z,16.29
2023-10-18T14:56:56.982Z,16.29
2023-10-18T14:59:24.992Z,16.29
2023-10-18T15:01:55.978Z,16.28
2023-10-18T15:04:25.689Z,16.27
2023-10-18T15:06:55.025Z,16.26
2023-10-18T15:09:22.322Z,16.25
2023-10-18T15:11:50.556Z,16.25
2023-10-18T15:14:19.583Z,16.25
2023-10-18T15:16:47.937Z,16.24
2023-10-18T15:19:18.209Z,16.23
2023-10-18T15:21:48.291Z,16.22
2023-10-18T15:24:15.662Z,16.22
2023-10-18T15:26:42.722Z,16.21
2023-10-18T15:29:10.092Z,16.21
2023-10-18T15:31:37.286Z,16.20
2023-10-18T15:34:05.707Z,16.20
2023-10-18T15:36:33.020Z,16.19
2023-10-18T15:39:01.685Z,16.19
2023-10-18T15:41:28.891Z,16.18
2023-10-18T15:43:59.259Z,16.17
2023-10-18T15:46:30.802Z,16.16
2023-10-18T15:49:01.383Z,16.18
2023-10-18T15:51:29.115Z,16.19
2023-10-18T15:53:59.584Z,16.20
2023-10-18T15:56:28.918Z,16.23
2023-10-18T15:58:56.879Z,16.25
2023-10-18T16:01:24.943Z,16.25
2023-10-18T16:03:52.851Z,16.26
2023-10-18T16:06:20.719Z,16.28
2023-10-18T16:08:49.518Z,16.29
2023-10-18T16:11:16.814Z,16.32
2023-10-18T16:13:44.425Z,16.34
2023-10-18T16:16:12.691Z,16.37
2023-10-18T16:18:42.555Z,16.40
2023-10-18T16:21:11.129Z,16.41
2023-10-18T16:23:43.031Z,16.43
2023-10-18T16:26:17.876Z,16.48
2023-10-18T16:28:47.208Z,16.48
2023-10-18T16:31:14.958Z,16.50
2023-10-18T16:33:43.218Z,16.49
2023-10-18T16:36:17.422Z,16.51
2023-10-18T16:38:46.097Z,16.51
2023-10-18T16:41:14.555Z,16.52
2023-10-18T16:43:42.459Z,16.54
2023-10-18T16:46:12.338Z,16.54
2023-10-18T16:48:41.296Z,16.53
2023-10-18T16:51:09.396Z,16.54
2023-10-18T16:53:37.456Z,16.55
2023-10-18T16:56:09.701Z,16.54
2023-10-18T16:58:37.423Z,16.55
2023-10-18T17:01:13.625Z,16.57
2023-10-18T17:03:43.082Z,16.56
2023-10-18T17:06:12.372Z,16.55
2023-10-18T17:08:40.490Z,16.54
2023-10-18T17:11:13.269Z,16.53
2023-10-18T17:13:43.868Z,16.54
2023-10-18T17:16:11.428Z,16.54
2023-10-18T17:18:39.080Z,16.54
2023-10-18T17:21:19.158Z,16.53
2023-10-18T17:23:54.791Z,16.53
2023-10-18T17:26:22.613Z,16.52
2023-10-18T17:28:50.117Z,16.52
2023-10-18T17:31:21.652Z,16.50
2023-10-18T17:33:50.849Z,16.51
2023-10-18T17:36:19.695Z,16.50
2023-10-18T17:38:48.169Z,16.51
2023-10-18T17:41:15.761Z,16.50
2023-10-18T17:43:43.464Z,16.49
2023-10-18T17:46:14.831Z,16.48
2023-10-18T17:48:42.343Z,16.47
2023-10-18T17:51:09.852Z,16.48
2023-10-18T17:53:37.644Z,16.45
2023-10-18T17:56:08.270Z,16.45
2023-10-18T17:58:38.935Z,16.45
2023-10-18T18:01:06.584Z,16.45
2023-10-18T18:03:34.513Z,16.43
2023-10-18T18:06:11.737Z,16.44
2023-10-18T18:08:39.378Z,16.42
2023-10-18T18:11:06.743Z,16.43
2023-10-18T18:13:37.144Z,16.42
2023-10-18T18:16:06.806Z,16.42
2023-10-18T18:18:34.457Z,16.41
2023-10-18T18:21:02.850Z,16.41
2023-10-18T18:23:30.528Z,16.41
2023-10-18T18:26:16.200Z,16.41
2023-10-18T18:28:44.550Z,16.40
2023-10-18T18:31:12.011Z,16.40
2023-10-18T18:33:39.518Z,16.40
2023-10-18T18:36:06.848Z,16.39
2023-10-18T18:38:34.198Z,16.39
2023-10-18T18:41:02.614Z,16.39
2023-10-18T18:43:29.930Z,16.37
2023-10-18T18:46:00.466Z,16.37
2023-10-18T18:48:28.542Z,16.37
2023-10-18T18:50:56.031Z,16.37
2023-10-18T18:55:50.724Z,16.38
2023-10-18T18:58:18.044Z,16.38
2023-10-18T19:00:45.431Z,16.37
2023-10-18T19:03:13.347Z,16.39
2023-10-18T19:05:40.634Z,16.39
2023-10-18T19:08:08.597Z,16.37
2023-10-18T19:10:36.551Z,16.38
2023-10-18T19:13:04.119Z,16.37
2023-10-18T19:15:32.401Z,16.37
2023-10-18T19:18:01.707Z,16.37
2023-10-18T19:20:29.036Z,16.37
2023-10-18T19:23:03.357Z,16.36
2023-10-18T19:25:31.819Z,16.36
2023-10-18T19:28:00.006Z,16.35
2023-10-18T19:30:27.098Z,16.35
2023-10-18T19:32:55.726Z,16.33
2023-10-18T19:35:24.434Z,16.34
2023-10-18T19:37:51.887Z,16.32
2023-10-18T19:40:19.706Z,16.33
2023-10-18T19:42:47.154Z,16.31
2023-10-18T19:45:16.854Z,16.32
2023-10-18T19:47:44.527Z,16.31
2023-10-18T19:50:12.352Z,16.30
2023-10-18T19:52:40.060Z,16.29
2023-10-18T19:55:08.786Z,16.30
2023-10-18T19:57:36.993Z,16.30
2023-10-18T20:00:08.622Z,16.30
2023-10-18T20:02:36.999Z,16.30
2023-10-18T20:05:05.188Z,16.29
2023-10-18T20:07:32.540Z,16.31
2023-10-18T20:09:59.633Z,16.30
2023-10-18T20:12:27.157Z,16.30
2023-10-18T20:14:54.772Z,16.29
2023-10-18T20:17:22.112Z,16.29
2023-10-18T20:19:49.314Z,16.29
2023-10-18T20:22:17.010Z,16.28
2023-10-18T20:24:44.117Z,16.29
2023-10-18T20:27:11.509Z,16.27
2023-10-18T20:29:38.550Z,16.28
2023-10-18T20:32:06.792Z,16.28
2023-10-18T20:34:33.983Z,16.28
2023-10-18T20:37:01.378Z,16.28
2023-10-18T20:39:40.230Z,16.27
2023-10-18T20:42:16.005Z,16.27
2023-10-18T20:44:44.868Z,16.28
2023-10-18T20:47:16.525Z,16.28
2023-10-18T20:49:50.783Z,16.27
2023-10-18T20:52:18.117Z,16.27
2023-10-18T20:54:46.928Z,16.26
2023-10-18T20:57:17.847Z,16.26
2023-10-18T20:59:44.920Z,16.26
2023-10-18T21:02:18.386Z,16.26
2023-10-18T21:04:46.200Z,16.26
2023-10-18T21:07:16.800Z,16.27
2023-10-18T21:09:44.307Z,16.26
2023-10-18T21:12:17.476Z,16.25
2023-10-18T21:14:47.350Z,16.24
2023-10-18T21:17:15.870Z,16.23
2023-10-18T21:19:44.373Z,16.24
2023-10-18T21:22:12.376Z,16.23
2023-10-18T21:24:39.543Z,16.23
2023-10-18T21:27:06.854Z,16.22
2023-10-18T21:29:35.077Z,16.21
2023-10-18T21:32:02.680Z,16.21
2023-10-18T21:34:30.019Z,16.20
2023-10-18T21:36:57.489Z,16.21
2023-10-18T21:39:26.227Z,16.20
2023-10-18T21:41:54.606Z,16.20
2023-10-18T21:44:21.657Z,16.20
2023-10-18T21:46:49.068Z,16.19
2023-10-18T21:49:17.213Z,16.19
2023-10-18T21:51:45.104Z,16.18
2023-10-18T21:54:12.445Z,16.18
2023-10-18T21:56:40.052Z,16.17
2023-10-18T21:59:12.218Z,16.18
2023-10-18T22:01:43.085Z,16.17
2023-10-18T22:04:10.892Z,16.17
2023-10-18T22:06:40.223Z,16.16
2023-10-18T22:09:25.990Z,16.16
2023-10-18T22:11:53.651Z,16.15
2023-10-18T22:14:20.812Z,16.15
2023-10-18T22:16:56.360Z,16.16
2023-10-18T22:19:33.995Z,16.14
2023-10-18T22:22:15.893Z,16.14
2023-10-18T22:24:48.284Z,16.14
2023-10-18T22:27:18.808Z,16.14
2023-10-18T22:29:48.757Z,16.12
2023-10-18T22:32:19.774Z,16.13
2023-10-18T22:34:47.914Z,16.12
2023-10-18T22:37:16.020Z,16.12
2023-10-18T22:39:44.709Z,16.11
2023-10-18T22:42:23.974Z,16.10
2023-10-18T22:45:06.085Z,16.10
2023-10-18T22:47:38.817Z,16.11
2023-10-18T22:50:20.130Z,16.10
2023-10-18T22:52:52.850Z,16.09
2023-10-18T22:55:20.901Z,16.09
2023-10-18T22:57:48.709Z,16.09
2023-10-18T23:00:16.669Z,16.07
2023-10-18T23:02:44.248Z,16.08
2023-10-18T23:05:21.341Z,16.07
2023-10-18T23:07:54.344Z,16.07
2023-10-18T23:10:36.330Z,16.05
2023-10-18T23:13:07.732Z,16.07
2023-10-18T23:15:48.630Z,16.05
2023-10-18T23:18:19.736Z,16.04
2023-10-18T23:20:59.053Z,16.06
2023-10-18T23:23:38.466Z,16.03
2023-10-18T23:26:27.239Z,16.03
2023-10-18T23:28:54.808Z,16.04
2023-10-18T23:31:32.018Z,16.03
2023-10-18T23:34:27.580Z,16.02
2023-10-18T23:37:00.432Z,16.02
2023-10-18T23:39:28.448Z,16.02
2023-10-18T23:42:13.840Z,16.02
2023-10-18T23:44:56.602Z,16.01
2023-10-18T23:47:45.458Z,16.00
2023-10-18T23:50:29.125Z,16.00
2023-10-18T23:53:19.535Z,16.02
2023-10-18T23:55:53.509Z,16.00
2023-10-18T23:58:21.633Z,15.99
